sensor_id;sensor_type;location;lat;lon;timestamp;P1;durP1;ratioP1;P2;durP2;ratioP2
74471;SDS011;62920;53.572;10.050;2022-09-20T00:00:38;4.82;;;1.30;;
74471;SDS011;62920;53.572;10.050;2022-09-20T00:05:29;5.37;;;1.50;;
74471;SDS011;62920;53.572;10.050;2022-09-20T00:07:58;7.68;;;1.67;;
74471;SDS011;62920;53.572;10.050;2022-09-20T00:10:23;9.35;;;2.13;;
74471;SDS011;62920;53.572;10.050;2022-09-20T00:12:49;5.78;;;1.45;;
74471;SDS011;62920;53.572;10.050;2022-09-20T00:15:14;9.10;;;1.60;;
74471;SDS011;62920;53.572;10.050;2022-09-20T00:17:40;7.40;;;1.65;;
74471;SDS011;62920;53.572;10.050;2022-09-20T00:20:05;10.48;;;1.73;;
74471;SDS011;62920;53.572;10.050;2022-09-20T00:22:31;10.20;;;2.13;;
74471;SDS011;62920;53.572;10.050;2022-09-20T00:24:56;5.75;;;1.40;;
74471;SDS011;62920;53.572;10.050;2022-09-20T00:27:22;7.43;;;1.88;;
74471;SDS011;62920;53.572;10.050;2022-09-20T00:29:47;6.40;;;1.52;;
74471;SDS011;62920;53.572;10.050;2022-09-20T00:32:12;10.27;;;2.30;;
74471;SDS011;62920;53.572;10.050;2022-09-20T00:34:38;8.52;;;1.98;;
74471;SDS011;62920;53.572;10.050;2022-09-20T00:37:22;5.75;;;1.25;;
74471;SDS011;62920;53.572;10.050;2022-09-20T00:39:47;4.28;;;1.48;;
74471;SDS011;62920;53.572;10.050;2022-09-20T00:42:12;9.48;;;1.63;;
74471;SDS011;62920;53.572;10.050;2022-09-20T00:49:49;9.93;;;2.20;;
74471;SDS011;62920;53.572;10.050;2022-09-20T00:52:17;8.80;;;1.90;;
74471;SDS011;62920;53.572;10.050;2022-09-20T00:54:43;10.25;;;1.90;;
74471;SDS011;62920;53.572;10.050;2022-09-20T00:57:08;8.55;;;1.70;;
74471;SDS011;62920;53.572;10.050;2022-09-20T00:59:34;6.35;;;1.73;;
74471;SDS011;62920;53.572;10.050;2022-09-20T01:02:05;7.43;;;1.60;;
74471;SDS011;62920;53.572;10.050;2022-09-20T01:07:03;6.65;;;1.45;;
74471;SDS011;62920;53.572;10.050;2022-09-20T01:09:29;7.15;;;1.38;;
74471;SDS011;62920;53.572;10.050;2022-09-20T01:11:55;9.85;;;1.73;;
74471;SDS011;62920;53.572;10.050;2022-09-20T01:14:21;8.70;;;1.92;;
74471;SDS011;62920;53.572;10.050;2022-09-20T01:16:47;7.18;;;1.83;;
74471;SDS011;62920;53.572;10.050;2022-09-20T01:19:18;6.97;;;1.60;;
74471;SDS011;62920;53.572;10.050;2022-09-20T01:21:52;7.30;;;1.65;;
74471;SDS011;62920;53.572;10.050;2022-09-20T01:24:21;6.82;;;1.80;;
74471;SDS011;62920;53.572;10.050;2022-09-20T01:26:54;6.13;;;1.73;;
74471;SDS011;62920;53.572;10.050;2022-09-20T01:29:36;8.60;;;2.08;;
74471;SDS011;62920;53.572;10.050;2022-09-20T01:32:10;7.57;;;1.73;;
74471;SDS011;62920;53.572;10.050;2022-09-20T01:34:47;6.65;;;1.27;;
74471;SDS011;62920;53.572;10.050;2022-09-20T01:42:22;5.95;;;1.40;;
74471;SDS011;62920;53.572;10.050;2022-09-20T02:17:54;6.53;;;1.77;;
74471;SDS011;62920;53.572;10.050;2022-09-20T02:20:52;7.40;;;1.88;;
74471;SDS011;62920;53.572;10.050;2022-09-20T02:31:26;8.18;;;1.75;;
74471;SDS011;62920;53.572;10.050;2022-09-20T02:33:56;5.72;;;1.85;;
74471;SDS011;62920;53.572;10.050;2022-09-20T02:36:38;8.15;;;2.38;;
74471;SDS011;62920;53.572;10.050;2022-09-20T02:47:04;5.47;;;1.80;;
74471;SDS011;62920;53.572;10.050;2022-09-20T02:49:56;5.70;;;1.55;;
74471;SDS011;62920;53.572;10.050;2022-09-20T02:55:17;5.00;;;1.90;;
74471;SDS011;62920;53.572;10.050;2022-09-20T03:01:16;5.63;;;2.10;;
74471;SDS011;62920;53.572;10.050;2022-09-20T03:04:05;11.88;;;1.88;;
74471;SDS011;62920;53.572;10.050;2022-09-20T03:06:44;5.65;;;1.85;;
74471;SDS011;62920;53.572;10.050;2022-09-20T03:14:37;7.75;;;2.15;;
74471;SDS011;62920;53.572;10.050;2022-09-20T03:25:23;5.13;;;1.70;;
74471;SDS011;62920;53.572;10.050;2022-09-20T03:30:25;8.40;;;1.77;;
74471;SDS011;62920;53.572;10.050;2022-09-20T03:32:56;3.75;;;1.55;;
74471;SDS011;62920;53.572;10.050;2022-09-20T03:38:44;8.50;;;1.70;;
74471;SDS011;62920;53.572;10.050;2022-09-20T03:43:53;8.68;;;1.55;;
74471;SDS011;62920;53.572;10.050;2022-09-20T03:46:28;5.68;;;1.85;;
74471;SDS011;62920;53.572;10.050;2022-09-20T04:04:43;3.92;;;1.55;;
74471;SDS011;62920;53.572;10.050;2022-09-20T04:07:21;6.25;;;1.35;;
74471;SDS011;62920;53.572;10.050;2022-09-20T04:10:48;4.07;;;1.52;;
74471;SDS011;62920;53.572;10.050;2022-09-20T04:13:34;3.90;;;1.67;;
74471;SDS011;62920;53.572;10.050;2022-09-20T04:16:16;4.88;;;1.55;;
74471;SDS011;62920;53.572;10.050;2022-09-20T04:18:52;4.70;;;1.80;;
74471;SDS011;62920;53.572;10.050;2022-09-20T04:21:30;5.03;;;1.80;;
74471;SDS011;62920;53.572;10.050;2022-09-20T04:24:11;6.45;;;1.65;;
74471;SDS011;62920;53.572;10.050;2022-09-20T04:26:46;5.50;;;1.92;;
74471;SDS011;62920;53.572;10.050;2022-09-20T04:32:11;5.20;;;1.60;;
74471;SDS011;62920;53.572;10.050;2022-09-20T04:35:03;3.75;;;1.95;;
74471;SDS011;62920;53.572;10.050;2022-09-20T04:38:09;4.15;;;1.70;;
74471;SDS011;62920;53.572;10.050;2022-09-20T04:43:15;4.65;;;2.13;;
74471;SDS011;62920;53.572;10.050;2022-09-20T04:57:04;4.30;;;1.92;;
74471;SDS011;62920;53.572;10.050;2022-09-20T05:16:02;4.55;;;1.83;;
74471;SDS011;62920;53.572;10.050;2022-09-20T05:29:13;6.70;;;2.22;;
74471;SDS011;62920;53.572;10.050;2022-09-20T05:31:46;8.05;;;2.20;;
74471;SDS011;62920;53.572;10.050;2022-09-20T05:34:30;3.47;;;1.65;;
74471;SDS011;62920;53.572;10.050;2022-09-20T05:42:08;4.47;;;1.60;;
74471;SDS011;62920;53.572;10.050;2022-09-20T05:50:23;5.50;;;2.15;;
74471;SDS011;62920;53.572;10.050;2022-09-20T05:53:16;5.15;;;2.22;;
74471;SDS011;62920;53.572;10.050;2022-09-20T06:03:52;6.75;;;1.75;;
74471;SDS011;62920;53.572;10.050;2022-09-20T06:06:38;5.28;;;1.67;;
74471;SDS011;62920;53.572;10.050;2022-09-20T06:22:36;8.35;;;1.75;;
74471;SDS011;62920;53.572;10.050;2022-09-20T06:33:20;7.47;;;1.90;;
74471;SDS011;62920;53.572;10.050;2022-09-20T06:41:46;7.15;;;1.85;;
74471;SDS011;62920;53.572;10.050;2022-09-20T06:44:13;5.28;;;1.65;;
74471;SDS011;62920;53.572;10.050;2022-09-20T06:46:39;5.70;;;1.80;;
74471;SDS011;62920;53.572;10.050;2022-09-20T06:49:05;8.48;;;1.50;;
74471;SDS011;62920;53.572;10.050;2022-09-20T06:51:35;4.03;;;2.08;;
74471;SDS011;62920;53.572;10.050;2022-09-20T06:54:02;7.70;;;2.10;;
74471;SDS011;62920;53.572;10.050;2022-09-20T06:56:29;6.38;;;2.30;;
74471;SDS011;62920;53.572;10.050;2022-09-20T06:58:56;8.65;;;1.55;;
74471;SDS011;62920;53.572;10.050;2022-09-20T07:01:21;6.10;;;2.03;;
74471;SDS011;62920;53.572;10.050;2022-09-20T07:03:47;7.82;;;1.92;;
74471;SDS011;62920;53.572;10.050;2022-09-20T07:06:12;8.00;;;2.30;;
74471;SDS011;62920;53.572;10.050;2022-09-20T07:08:44;5.03;;;1.70;;
74471;SDS011;62920;53.572;10.050;2022-09-20T07:11:13;4.07;;;1.52;;
74471;SDS011;62920;53.572;10.050;2022-09-20T07:13:43;6.35;;;2.15;;
74471;SDS011;62920;53.572;10.050;2022-09-20T07:16:11;5.30;;;1.25;;
74471;SDS011;62920;53.572;10.050;2022-09-20T07:18:38;4.97;;;1.40;;
74471;SDS011;62920;53.572;10.050;2022-09-20T07:21:05;8.27;;;1.70;;
74471;SDS011;62920;53.572;10.050;2022-09-20T07:23:30;7.28;;;1.98;;
74471;SDS011;62920;53.572;10.050;2022-09-20T07:25:56;4.30;;;1.20;;
74471;SDS011;62920;53.572;10.050;2022-09-20T07:28:28;6.85;;;1.70;;
74471;SDS011;62920;53.572;10.050;2022-09-20T07:30:55;8.27;;;1.40;;
74471;SDS011;62920;53.572;10.050;2022-09-20T07:33:21;7.35;;;2.08;;
74471;SDS011;62920;53.572;10.050;2022-09-20T07:35:49;5.18;;;1.17;;
74471;SDS011;62920;53.572;10.050;2022-09-20T07:38:16;7.07;;;1.27;;
74471;SDS011;62920;53.572;10.050;2022-09-20T07:40:42;8.15;;;1.50;;
74471;SDS011;62920;53.572;10.050;2022-09-20T07:43:09;5.03;;;1.27;;
74471;SDS011;62920;53.572;10.050;2022-09-20T07:45:35;8.95;;;1.60;;
74471;SDS011;62920;53.572;10.050;2022-09-20T07:48:02;10.20;;;1.48;;
74471;SDS011;62920;53.572;10.050;2022-09-20T07:52:55;6.78;;;1.45;;
74471;SDS011;62920;53.572;10.050;2022-09-20T07:55:21;13.50;;;2.05;;
74471;SDS011;62920;53.572;10.050;2022-09-20T07:57:46;7.20;;;1.27;;
74471;SDS011;62920;53.572;10.050;2022-09-20T08:00:12;5.57;;;1.48;;
74471;SDS011;62920;53.572;10.050;2022-09-20T08:02:38;11.57;;;1.58;;
74471;SDS011;62920;53.572;10.050;2022-09-20T08:05:04;9.18;;;1.50;;
74471;SDS011;62920;53.572;10.050;2022-09-20T08:07:29;11.18;;;1.50;;
74471;SDS011;62920;53.572;10.050;2022-09-20T08:09:55;11.18;;;1.60;;
74471;SDS011;62920;53.572;10.050;2022-09-20T08:12:20;5.47;;;1.20;;
74471;SDS011;62920;53.572;10.050;2022-09-20T08:14:46;10.93;;;1.35;;
74471;SDS011;62920;53.572;10.050;2022-09-20T08:17:12;10.20;;;1.40;;
74471;SDS011;62920;53.572;10.050;2022-09-20T08:19:37;9.00;;;1.40;;
74471;SDS011;62920;53.572;10.050;2022-09-20T08:22:04;7.63;;;1.63;;
74471;SDS011;62920;53.572;10.050;2022-09-20T08:24:30;12.02;;;1.65;;
74471;SDS011;62920;53.572;10.050;2022-09-20T08:26:56;6.30;;;1.20;;
74471;SDS011;62920;53.572;10.050;2022-09-20T08:29:21;9.18;;;3.38;;
74471;SDS011;62920;53.572;10.050;2022-09-20T08:31:46;8.50;;;1.27;;
74471;SDS011;62920;53.572;10.050;2022-09-20T08:34:12;3.40;;;0.90;;
74471;SDS011;62920;53.572;10.050;2022-09-20T08:39:05;8.32;;;1.05;;
74471;SDS011;62920;53.572;10.050;2022-09-20T08:41:37;8.98;;;1.20;;
74471;SDS011;62920;53.572;10.050;2022-09-20T08:46:44;11.93;;;1.52;;
74471;SDS011;62920;53.572;10.050;2022-09-20T08:49:17;14.52;;;4.25;;
74471;SDS011;62920;53.572;10.050;2022-09-20T08:51:49;9.15;;;1.63;;
74471;SDS011;62920;53.572;10.050;2022-09-20T08:54:16;9.02;;;1.45;;
74471;SDS011;62920;53.572;10.050;2022-09-20T08:56:41;9.68;;;1.20;;
74471;SDS011;62920;53.572;10.050;2022-09-20T08:59:10;7.63;;;1.00;;
74471;SDS011;62920;53.572;10.050;2022-09-20T09:01:40;9.23;;;1.10;;
74471;SDS011;62920;53.572;10.050;2022-09-20T09:06:48;3.83;;;0.90;;
74471;SDS011;62920;53.572;10.050;2022-09-20T09:09:19;6.85;;;1.10;;
74471;SDS011;62920;53.572;10.050;2022-09-20T09:11:47;6.18;;;1.08;;
74471;SDS011;62920;53.572;10.050;2022-09-20T09:14:30;12.43;;;1.15;;
74471;SDS011;62920;53.572;10.050;2022-09-20T09:17:16;9.82;;;1.30;;
74471;SDS011;62920;53.572;10.050;2022-09-20T09:19:53;10.52;;;1.30;;
74471;SDS011;62920;53.572;10.050;2022-09-20T09:25:34;6.35;;;0.77;;
74471;SDS011;62920;53.572;10.050;2022-09-20T09:30:34;9.45;;;1.50;;
74471;SDS011;62920;53.572;10.050;2022-09-20T09:35:57;7.50;;;1.08;;
74471;SDS011;62920;53.572;10.050;2022-09-20T09:38:24;5.20;;;0.85;;
74471;SDS011;62920;53.572;10.050;2022-09-20T09:41:02;8.07;;;0.82;;
74471;SDS011;62920;53.572;10.050;2022-09-20T09:46:23;10.98;;;1.45;;
74471;SDS011;62920;53.572;10.050;2022-09-20T10:00:12;9.25;;;1.02;;
74471;SDS011;62920;53.572;10.050;2022-09-20T10:08:22;7.47;;;1.20;;
74471;SDS011;62920;53.572;10.050;2022-09-20T10:11:03;8.85;;;1.40;;
74471;SDS011;62920;53.572;10.050;2022-09-20T10:13:43;5.30;;;0.95;;
74471;SDS011;62920;53.572;10.050;2022-09-20T10:21:59;5.65;;;0.80;;
74471;SDS011;62920;53.572;10.050;2022-09-20T10:25:12;5.30;;;0.93;;
74471;SDS011;62920;53.572;10.050;2022-09-20T10:30:52;4.07;;;0.82;;
74471;SDS011;62920;53.572;10.050;2022-09-20T10:33:40;6.35;;;1.27;;
74471;SDS011;62920;53.572;10.050;2022-09-20T10:39:28;5.55;;;0.95;;
74471;SDS011;62920;53.572;10.050;2022-09-20T10:47:57;5.68;;;0.90;;
74471;SDS011;62920;53.572;10.050;2022-09-20T10:50:43;4.10;;;1.00;;
74471;SDS011;62920;53.572;10.050;2022-09-20T10:53:32;4.75;;;1.10;;
74471;SDS011;62920;53.572;10.050;2022-09-20T11:01:35;6.70;;;1.00;;
74471;SDS011;62920;53.572;10.050;2022-09-20T11:09:28;5.20;;;1.08;;
74471;SDS011;62920;53.572;10.050;2022-09-20T11:14:56;4.13;;;0.70;;
74471;SDS011;62920;53.572;10.050;2022-09-20T11:20:28;6.65;;;0.80;;
74471;SDS011;62920;53.572;10.050;2022-09-20T11:23:01;5.25;;;1.05;;
74471;SDS011;62920;53.572;10.050;2022-09-20T11:25:36;4.82;;;1.30;;
74471;SDS011;62920;53.572;10.050;2022-09-20T11:33:13;5.72;;;1.20;;
74471;SDS011;62920;53.572;10.050;2022-09-20T11:35:50;7.35;;;1.30;;
74471;SDS011;62920;53.572;10.050;2022-09-20T11:43:28;3.15;;;0.75;;
74471;SDS011;62920;53.572;10.050;2022-09-20T11:45:57;6.70;;;1.42;;
74471;SDS011;62920;53.572;10.050;2022-09-20T11:48:25;8.13;;;1.10;;
74471;SDS011;62920;53.572;10.050;2022-09-20T11:56:48;5.65;;;1.00;;
74471;SDS011;62920;53.572;10.050;2022-09-20T11:59:26;5.75;;;1.08;;
74471;SDS011;62920;53.572;10.050;2022-09-20T12:01:55;6.38;;;0.98;;
74471;SDS011;62920;53.572;10.050;2022-09-20T12:04:27;5.03;;;0.80;;
74471;SDS011;62920;53.572;10.050;2022-09-20T12:07:02;6.80;;;0.90;;
74471;SDS011;62920;53.572;10.050;2022-09-20T12:09:37;5.22;;;0.95;;
74471;SDS011;62920;53.572;10.050;2022-09-20T12:12:26;4.78;;;0.90;;
74471;SDS011;62920;53.572;10.050;2022-09-20T12:14:58;5.70;;;1.00;;
74471;SDS011;62920;53.572;10.050;2022-09-20T12:26:49;4.45;;;0.57;;
74471;SDS011;62920;53.572;10.050;2022-09-20T12:29:45;5.20;;;0.80;;
74471;SDS011;62920;53.572;10.050;2022-09-20T12:31:49;4.50;;;0.77;;
74471;SDS011;62920;53.572;10.050;2022-09-20T12:36:44;5.53;;;0.82;;
74471;SDS011;62920;53.572;10.050;2022-09-20T12:39:34;7.70;;;1.17;;
74471;SDS011;62920;53.572;10.050;2022-09-20T12:55:08;7.07;;;1.20;;
74471;SDS011;62920;53.572;10.050;2022-09-20T12:57:51;5.35;;;0.90;;
74471;SDS011;62920;53.572;10.050;2022-09-20T13:00:30;5.53;;;1.30;;
74471;SDS011;62920;53.572;10.050;2022-09-20T13:03:30;4.68;;;0.95;;
74471;SDS011;62920;53.572;10.050;2022-09-20T13:08:29;4.05;;;0.73;;
74471;SDS011;62920;53.572;10.050;2022-09-20T13:11:17;6.22;;;1.00;;
74471;SDS011;62920;53.572;10.050;2022-09-20T13:13:58;3.83;;;0.70;;
74471;SDS011;62920;53.572;10.050;2022-09-20T13:19:22;4.90;;;0.60;;
74471;SDS011;62920;53.572;10.050;2022-09-20T13:22:11;4.13;;;0.63;;
74471;SDS011;62920;53.572;10.050;2022-09-20T13:24:58;3.05;;;0.70;;
74471;SDS011;62920;53.572;10.050;2022-09-20T13:27:29;4.20;;;0.77;;
74471;SDS011;62920;53.572;10.050;2022-09-20T13:30:18;3.70;;;0.70;;
74471;SDS011;62920;53.572;10.050;2022-09-20T13:32:45;6.97;;;0.80;;
74471;SDS011;62920;53.572;10.050;2022-09-20T13:37:37;4.57;;;0.85;;
74471;SDS011;62920;53.572;10.050;2022-09-20T13:40:14;4.70;;;1.30;;
74471;SDS011;62920;53.572;10.050;2022-09-20T13:42:49;6.50;;;1.38;;
74471;SDS011;62920;53.572;10.050;2022-09-20T13:45:16;2.72;;;0.77;;
74471;SDS011;62920;53.572;10.050;2022-09-20T13:47:43;3.28;;;0.90;;
74471;SDS011;62920;53.572;10.050;2022-09-20T13:50:16;3.60;;;0.90;;
74471;SDS011;62920;53.572;10.050;2022-09-20T13:52:48;2.38;;;0.60;;
74471;SDS011;62920;53.572;10.050;2022-09-20T13:55:25;3.60;;;0.90;;
74471;SDS011;62920;53.572;10.050;2022-09-20T13:57:59;3.85;;;0.75;;
74471;SDS011;62920;53.572;10.050;2022-09-20T14:03:26;4.82;;;0.88;;
74471;SDS011;62920;53.572;10.050;2022-09-20T14:05:53;6.68;;;1.00;;
74471;SDS011;62920;53.572;10.050;2022-09-20T14:08:22;3.95;;;0.80;;
74471;SDS011;62920;53.572;10.050;2022-09-20T14:11:04;3.50;;;0.73;;
74471;SDS011;62920;53.572;10.050;2022-09-20T14:13:40;4.82;;;0.88;;
74471;SDS011;62920;53.572;10.050;2022-09-20T14:16:07;3.22;;;0.80;;
74471;SDS011;62920;53.572;10.050;2022-09-20T14:20:59;7.10;;;1.08;;
74471;SDS011;62920;53.572;10.050;2022-09-20T14:23:25;2.85;;;0.65;;
74471;SDS011;62920;53.572;10.050;2022-09-20T14:26:04;3.88;;;0.90;;
74471;SDS011;62920;53.572;10.050;2022-09-20T14:28:31;5.38;;;0.75;;
74471;SDS011;62920;53.572;10.050;2022-09-20T14:31:06;3.97;;;1.13;;
74471;SDS011;62920;53.572;10.050;2022-09-20T14:33:34;2.88;;;0.60;;
74471;SDS011;62920;53.572;10.050;2022-09-20T14:36:04;3.53;;;0.70;;
74471;SDS011;62920;53.572;10.050;2022-09-20T14:38:36;3.85;;;0.80;;
74471;SDS011;62920;53.572;10.050;2022-09-20T14:41:02;3.85;;;0.80;;
74471;SDS011;62920;53.572;10.050;2022-09-20T14:43:28;5.65;;;1.10;;
74471;SDS011;62920;53.572;10.050;2022-09-20T14:45:59;5.65;;;1.00;;
74471;SDS011;62920;53.572;10.050;2022-09-20T14:48:39;4.78;;;0.88;;
74471;SDS011;62920;53.572;10.050;2022-09-20T14:53:41;4.38;;;0.80;;
74471;SDS011;62920;53.572;10.050;2022-09-20T14:56:11;4.80;;;1.35;;
74471;SDS011;62920;53.572;10.050;2022-09-20T15:01:29;4.82;;;1.17;;
74471;SDS011;62920;53.572;10.050;2022-09-20T15:03:55;4.40;;;0.80;;
74471;SDS011;62920;53.572;10.050;2022-09-20T15:06:21;3.92;;;0.70;;
74471;SDS011;62920;53.572;10.050;2022-09-20T15:08:47;3.38;;;0.80;;
74471;SDS011;62920;53.572;10.050;2022-09-20T15:11:13;3.83;;;0.63;;
74471;SDS011;62920;53.572;10.050;2022-09-20T15:13:39;3.10;;;0.70;;
74471;SDS011;62920;53.572;10.050;2022-09-20T15:16:04;3.53;;;1.20;;
74471;SDS011;62920;53.572;10.050;2022-09-20T15:18:31;6.47;;;1.30;;
74471;SDS011;62920;53.572;10.050;2022-09-20T15:20:59;4.07;;;0.95;;
74471;SDS011;62920;53.572;10.050;2022-09-20T15:23:25;3.47;;;0.85;;
74471;SDS011;62920;53.572;10.050;2022-09-20T15:25:51;5.28;;;0.88;;
74471;SDS011;62920;53.572;10.050;2022-09-20T15:28:18;4.28;;;1.08;;
74471;SDS011;62920;53.572;10.050;2022-09-20T15:30:44;4.90;;;0.88;;
74471;SDS011;62920;53.572;10.050;2022-09-20T15:33:11;4.57;;;1.10;;
74471;SDS011;62920;53.572;10.050;2022-09-20T15:35:37;5.55;;;1.20;;
74471;SDS011;62920;53.572;10.050;2022-09-20T15:38:03;6.63;;;1.77;;
74471;SDS011;62920;53.572;10.050;2022-09-20T15:40:29;2.80;;;1.10;;
74471;SDS011;62920;53.572;10.050;2022-09-20T15:42:56;5.30;;;1.52;;
74471;SDS011;62920;53.572;10.050;2022-09-20T15:45:23;6.03;;;1.88;;
74471;SDS011;62920;53.572;10.050;2022-09-20T15:50:19;3.10;;;0.80;;
74471;SDS011;62920;53.572;10.050;2022-09-20T15:52:46;9.00;;;0.73;;
74471;SDS011;62920;53.572;10.050;2022-09-20T15:55:14;4.75;;;0.90;;
74471;SDS011;62920;53.572;10.050;2022-09-20T15:57:39;4.47;;;0.77;;
74471;SDS011;62920;53.572;10.050;2022-09-20T16:00:06;6.00;;;1.63;;
74471;SDS011;62920;53.572;10.050;2022-09-20T16:02:31;7.57;;;2.38;;
74471;SDS011;62920;53.572;10.050;2022-09-20T16:04:57;7.75;;;1.15;;
74471;SDS011;62920;53.572;10.050;2022-09-20T16:07:24;7.05;;;0.90;;
74471;SDS011;62920;53.572;10.050;2022-09-20T16:09:55;5.35;;;0.93;;
74471;SDS011;62920;53.572;10.050;2022-09-20T16:12:21;6.15;;;0.85;;
74471;SDS011;62920;53.572;10.050;2022-09-20T16:14:47;4.07;;;0.60;;
74471;SDS011;62920;53.572;10.050;2022-09-20T16:17:13;4.53;;;0.80;;
74471;SDS011;62920;53.572;10.050;2022-09-20T16:19:39;5.10;;;0.98;;
74471;SDS011;62920;53.572;10.050;2022-09-20T16:22:05;5.07;;;1.00;;
74471;SDS011;62920;53.572;10.050;2022-09-20T16:24:32;2.60;;;0.70;;
74471;SDS011;62920;53.572;10.050;2022-09-20T16:26:58;4.40;;;0.77;;
74471;SDS011;62920;53.572;10.050;2022-09-20T16:29:25;4.25;;;0.80;;
74471;SDS011;62920;53.572;10.050;2022-09-20T16:31:53;6.93;;;0.85;;
74471;SDS011;62920;53.572;10.050;2022-09-20T16:34:20;4.45;;;0.60;;
74471;SDS011;62920;53.572;10.050;2022-09-20T16:36:56;4.60;;;0.80;;
74471;SDS011;62920;53.572;10.050;2022-09-20T16:39:24;5.63;;;0.75;;
74471;SDS011;62920;53.572;10.050;2022-09-20T16:41:51;5.30;;;0.95;;
74471;SDS011;62920;53.572;10.050;2022-09-20T16:44:17;5.47;;;0.80;;
74471;SDS011;62920;53.572;10.050;2022-09-20T16:46:43;6.78;;;0.80;;
74471;SDS011;62920;53.572;10.050;2022-09-20T16:49:09;5.07;;;1.10;;
74471;SDS011;62920;53.572;10.050;2022-09-20T16:51:38;6.22;;;1.02;;
74471;SDS011;62920;53.572;10.050;2022-09-20T16:54:05;5.15;;;0.85;;
74471;SDS011;62920;53.572;10.050;2022-09-20T16:56:34;4.00;;;0.80;;
74471;SDS011;62920;53.572;10.050;2022-09-20T16:59:00;6.82;;;0.95;;
74471;SDS011;62920;53.572;10.050;2022-09-20T17:01:27;5.85;;;1.30;;
74471;SDS011;62920;53.572;10.050;2022-09-20T17:03:53;4.07;;;0.80;;
74471;SDS011;62920;53.572;10.050;2022-09-20T17:06:18;6.95;;;1.20;;
74471;SDS011;62920;53.572;10.050;2022-09-20T17:08:44;3.38;;;0.90;;
74471;SDS011;62920;53.572;10.050;2022-09-20T17:13:38;6.90;;;1.40;;
74471;SDS011;62920;53.572;10.050;2022-09-20T17:16:08;4.38;;;0.90;;
74471;SDS011;62920;53.572;10.050;2022-09-20T17:18:41;5.50;;;1.20;;
74471;SDS011;62920;53.572;10.050;2022-09-20T17:23:42;8.07;;;2.13;;
74471;SDS011;62920;53.572;10.050;2022-09-20T17:26:10;7.75;;;1.58;;
74471;SDS011;62920;53.572;10.050;2022-09-20T17:28:38;5.10;;;1.30;;
74471;SDS011;62920;53.572;10.050;2022-09-20T17:31:04;5.60;;;1.67;;
74471;SDS011;62920;53.572;10.050;2022-09-20T17:33:31;5.25;;;1.15;;
74471;SDS011;62920;53.572;10.050;2022-09-20T17:35:57;4.10;;;1.50;;
74471;SDS011;62920;53.572;10.050;2022-09-20T17:38:24;5.03;;;1.50;;
74471;SDS011;62920;53.572;10.050;2022-09-20T17:41:03;9.25;;;1.60;;
74471;SDS011;62920;53.572;10.050;2022-09-20T17:43:33;4.53;;;1.65;;
74471;SDS011;62920;53.572;10.050;2022-09-20T17:46:19;7.35;;;1.90;;
74471;SDS011;62920;53.572;10.050;2022-09-20T17:48:50;5.70;;;1.85;;
74471;SDS011;62920;53.572;10.050;2022-09-20T17:51:26;6.03;;;2.10;;
74471;SDS011;62920;53.572;10.050;2022-09-20T17:53:56;10.25;;;2.20;;
74471;SDS011;62920;53.572;10.050;2022-09-20T17:56:22;11.10;;;2.88;;
74471;SDS011;62920;53.572;10.050;2022-09-20T17:58:52;8.88;;;2.85;;
74471;SDS011;62920;53.572;10.050;2022-09-20T18:01:21;6.47;;;2.15;;
74471;SDS011;62920;53.572;10.050;2022-09-20T18:03:47;8.93;;;2.40;;
74471;SDS011;62920;53.572;10.050;2022-09-20T18:06:17;5.78;;;2.08;;
74471;SDS011;62920;53.572;10.050;2022-09-20T18:09:19;6.47;;;2.10;;
74471;SDS011;62920;53.572;10.050;2022-09-20T18:11:41;4.95;;;2.15;;
74471;SDS011;62920;53.572;10.050;2022-09-20T18:14:12;5.63;;;2.10;;
74471;SDS011;62920;53.572;10.050;2022-09-20T18:16:38;6.70;;;2.25;;
74471;SDS011;62920;53.572;10.050;2022-09-20T18:19:04;7.15;;;2.08;;
74471;SDS011;62920;53.572;10.050;2022-09-20T18:21:31;8.30;;;2.00;;
74471;SDS011;62920;53.572;10.050;2022-09-20T18:23:59;7.65;;;2.20;;
74471;SDS011;62920;53.572;10.050;2022-09-20T18:26:26;5.07;;;1.67;;
74471;SDS011;62920;53.572;10.050;2022-09-20T18:31:33;8.10;;;2.13;;
74471;SDS011;62920;53.572;10.050;2022-09-20T18:34:04;9.25;;;2.35;;
74471;SDS011;62920;53.572;10.050;2022-09-20T18:36:31;7.00;;;2.03;;
74471;SDS011;62920;53.572;10.050;2022-09-20T18:38:58;7.22;;;2.05;;
74471;SDS011;62920;53.572;10.050;2022-09-20T18:41:27;5.97;;;2.42;;
74471;SDS011;62920;53.572;10.050;2022-09-20T18:43:55;6.22;;;1.85;;
74471;SDS011;62920;53.572;10.050;2022-09-20T18:46:22;7.15;;;1.98;;
74471;SDS011;62920;53.572;10.050;2022-09-20T18:48:52;4.70;;;1.83;;
74471;SDS011;62920;53.572;10.050;2022-09-20T18:51:19;5.93;;;2.13;;
74471;SDS011;62920;53.572;10.050;2022-09-20T18:53:45;9.27;;;2.78;;
74471;SDS011;62920;53.572;10.050;2022-09-20T18:58:47;10.50;;;2.78;;
74471;SDS011;62920;53.572;10.050;2022-09-20T19:04:08;5.85;;;2.15;;
74471;SDS011;62920;53.572;10.050;2022-09-20T19:18:10;8.23;;;2.95;;
74471;SDS011;62920;53.572;10.050;2022-09-20T19:20:45;8.77;;;2.95;;
74471;SDS011;62920;53.572;10.050;2022-09-20T19:28:54;7.65;;;2.40;;
74471;SDS011;62920;53.572;10.050;2022-09-20T19:33:54;9.10;;;2.45;;
74471;SDS011;62920;53.572;10.050;2022-09-20T19:38:50;8.05;;;2.40;;
74471;SDS011;62920;53.572;10.050;2022-09-20T19:41:42;13.32;;;2.53;;
74471;SDS011;62920;53.572;10.050;2022-09-20T19:52:22;11.05;;;3.05;;
74471;SDS011;62920;53.572;10.050;2022-09-20T19:54:49;9.63;;;3.08;;
74471;SDS011;62920;53.572;10.050;2022-09-20T19:57:21;10.77;;;2.95;;
74471;SDS011;62920;53.572;10.050;2022-09-20T19:59:48;9.32;;;2.70;;
74471;SDS011;62920;53.572;10.050;2022-09-20T20:04:40;14.05;;;3.08;;
74471;SDS011;62920;53.572;10.050;2022-09-20T20:09:37;7.75;;;2.42;;
74471;SDS011;62920;53.572;10.050;2022-09-20T20:12:13;8.95;;;2.90;;
74471;SDS011;62920;53.572;10.050;2022-09-20T20:14:47;6.90;;;2.70;;
74471;SDS011;62920;53.572;10.050;2022-09-20T20:25:26;11.20;;;3.53;;
74471;SDS011;62920;53.572;10.050;2022-09-20T20:27:58;7.80;;;3.05;;
74471;SDS011;62920;53.572;10.050;2022-09-20T20:30:24;7.53;;;2.70;;
74471;SDS011;62920;53.572;10.050;2022-09-20T20:32:53;8.30;;;3.13;;
74471;SDS011;62920;53.572;10.050;2022-09-20T20:35:21;6.53;;;2.70;;
74471;SDS011;62920;53.572;10.050;2022-09-20T20:37:47;7.82;;;2.30;;
74471;SDS011;62920;53.572;10.050;2022-09-20T20:40:13;8.63;;;2.70;;
74471;SDS011;62920;53.572;10.050;2022-09-20T20:42:39;9.75;;;2.22;;
74471;SDS011;62920;53.572;10.050;2022-09-20T20:45:05;7.10;;;3.40;;
74471;SDS011;62920;53.572;10.050;2022-09-20T20:47:34;8.00;;;2.78;;
74471;SDS011;62920;53.572;10.050;2022-09-20T20:49:59;8.23;;;2.42;;
74471;SDS011;62920;53.572;10.050;2022-09-20T20:52:25;8.85;;;2.80;;
74471;SDS011;62920;53.572;10.050;2022-09-20T20:54:50;5.85;;;2.38;;
74471;SDS011;62920;53.572;10.050;2022-09-20T20:57:16;8.05;;;2.97;;
74471;SDS011;62920;53.572;10.050;2022-09-20T20:59:42;9.18;;;2.65;;
74471;SDS011;62920;53.572;10.050;2022-09-20T21:02:11;6.18;;;2.08;;
74471;SDS011;62920;53.572;10.050;2022-09-20T21:04:36;7.18;;;2.28;;
74471;SDS011;62920;53.572;10.050;2022-09-20T21:07:03;8.55;;;2.55;;
74471;SDS011;62920;53.572;10.050;2022-09-20T21:09:29;7.15;;;2.10;;
74471;SDS011;62920;53.572;10.050;2022-09-20T21:11:56;7.53;;;2.63;;
74471;SDS011;62920;53.572;10.050;2022-09-20T21:14:21;7.25;;;2.72;;
74471;SDS011;62920;53.572;10.050;2022-09-20T21:16:46;6.45;;;2.88;;
74471;SDS011;62920;53.572;10.050;2022-09-20T21:19:13;9.20;;;2.97;;
74471;SDS011;62920;53.572;10.050;2022-09-20T21:21:40;7.15;;;2.65;;
74471;SDS011;62920;53.572;10.050;2022-09-20T21:24:07;6.85;;;2.70;;